< < Back
Terminal Aerodrome Forecast


Current Version              Previous Versions:   1  2  3  4  5  6  7  8  9  

Terminal Aerodrome Forecast

450
FTUS42 KFFC 261126
TAFATL
TAF
KATL 261126Z 2612/2718 30010KT P6SM SCT120
     FM262100 26007KT P6SM SCT080
     FM270300 25009KT P6SM BKN050
     FM271200 29010KT P6SM SCT050=



Latest METAR

454
SAUS70 KWBC 261900 RRB
MTRATL
METAR KATL 261852Z 30012G18KT 10SM FEW200 13/M07 A3007 RMK AO2 SLP184
T01331072


USA.gov is the U.S. government's official web portal to all federal, state and local government web resources and services.